Time;durP1;ratioP1;P1;durP2;ratioP2;P2;SDS_P1;SDS_P2;PMS_P1;PMS_P2;Temp;Humidity;BMP_temperature;BMP_pressure;BME280_temperature;BME280_humidity;BME280_pressure;Samples;Min_cycle;Max_cycle;Signal;HPM_P1;HPM_P2
2023/03/17 00:00:50;;;;;;;4.37;2.63;;;6.40;87.80;;;5.48;59.91;100615.72;5055341;28;20213;-73
2023/03/17 00:03:29;;;;;;;4.13;2.77;;;6.30;88.10;;;5.45;60.20;100615.16;5055056;28;20643;-73
2023/03/17 00:06:03;;;;;;;3.40;2.67;;;6.30;88.30;;;5.45;60.09;100609.84;5054857;28;20717;-73
2023/03/17 00:08:37;;;;;;;4.00;2.90;;;6.30;88.40;;;5.41;59.79;100603.94;5054880;28;20204;-73
2023/03/17 00:11:13;;;;;;;3.03;2.60;;;6.30;88.40;;;5.40;60.32;100599.63;5055079;28;20237;-73
2023/03/17 00:13:47;;;;;;;4.07;2.80;;;6.30;88.70;;;5.43;59.75;100599.34;5054720;28;20562;-73
2023/03/17 00:16:24;;;;;;;2.50;2.30;;;6.30;88.20;;;5.41;60.08;100595.97;5054725;28;20213;-73
2023/03/17 00:18:57;;;;;;;3.33;2.60;;;6.30;88.70;;;5.38;60.02;100598.91;5055006;28;20194;-73
2023/03/17 00:21:35;;;;;;;3.80;2.60;;;6.20;88.60;;;5.39;60.25;100599.75;5054950;28;20194;-74
2023/03/17 00:24:10;;;;;;;3.17;2.80;;;6.20;88.90;;;5.38;60.29;100596.25;5054836;28;20236;-73
2023/03/17 00:26:45;;;;;;;3.00;2.70;;;6.30;89.10;;;5.37;60.50;100589.28;5054513;28;20188;-73
2023/03/17 00:29:16;;;;;;;4.20;3.20;;;6.20;89.20;;;5.39;60.61;100589.97;5054491;28;20186;-73
2023/03/17 00:31:49;;;;;;;4.33;3.30;;;6.30;89.20;;;5.37;60.42;100586.63;5054657;28;20215;-73
2023/03/17 00:34:22;;;;;;;4.40;2.93;;;6.20;89.50;;;5.35;61.11;100588.53;5054624;28;20226;-73
2023/03/17 00:36:55;;;;;;;5.03;3.30;;;6.20;89.90;;;5.32;61.20;100587.97;5054353;28;20673;-73
2023/03/17 00:39:27;;;;;;;3.57;3.00;;;6.20;90.10;;;5.30;61.63;100584.59;5054626;28;20194;-73
2023/03/17 00:41:59;;;;;;;3.73;3.20;;;6.20;90.30;;;5.28;61.39;100586.53;5054568;28;20210;-73
2023/03/17 00:44:31;;;;;;;4.10;2.70;;;6.10;90.10;;;5.26;61.48;100589.34;5054431;28;20230;-73
2023/03/17 00:47:03;;;;;;;3.73;3.03;;;6.10;90.30;;;5.24;61.46;100585.94;5053241;28;20202;-73
2023/03/17 00:49:35;;;;;;;3.50;3.20;;;6.10;90.20;;;5.25;61.57;100584.13;5054142;28;20591;-73
2023/03/17 00:52:11;;;;;;;4.07;3.23;;;6.10;90.30;;;5.25;60.98;100587.66;5054250;28;20211;-73
2023/03/17 00:54:43;;;;;;;5.37;3.27;;;6.10;90.30;;;5.23;61.31;100586.09;5054235;28;20221;-73
2023/03/17 00:57:15;;;;;;;3.83;3.00;;;6.10;90.20;;;5.23;61.39;100584.28;5054332;28;20604;-73
2023/03/17 00:59:48;;;;;;;4.67;3.30;;;6.10;90.20;;;5.22;60.91;100579.94;5054238;28;20206;-73
2023/03/17 01:02:19;;;;;;;5.67;3.50;;;6.10;90.00;;;5.24;61.09;100572.69;5054180;28;20186;-73
2023/03/17 01:04:51;;;;;;;4.77;3.37;;;6.10;90.10;;;5.23;61.36;100578.13;5054041;28;20226;-73
2023/03/17 01:07:38;;;;;;;3.83;3.43;;;6.10;90.10;;;5.22;60.95;100563.19;5054114;28;20194;-73
2023/03/17 01:10:17;;;;;;;5.40;3.70;;;6.10;90.10;;;5.21;61.09;100564.13;5054044;28;20198;-73
2023/03/17 01:12:50;;;;;;;4.53;3.30;;;6.10;90.10;;;5.21;61.05;100549.06;5053930;28;20240;-73
2023/03/17 01:15:24;;;;;;;3.90;3.40;;;6.10;90.10;;;5.22;61.28;100556.06;5053695;28;20238;-73
2023/03/17 01:17:57;;;;;;;4.17;3.70;;;6.10;90.00;;;5.23;61.13;100541.81;5053995;28;20186;-73
2023/03/17 01:20:32;;;;;;;4.97;3.90;;;6.10;90.20;;;5.24;61.22;100535.53;5053901;28;20190;-73
2023/03/17 01:23:06;;;;;;;4.80;3.70;;;6.10;90.20;;;5.24;61.45;100554.09;5053883;28;20186;-73
2023/03/17 01:25:38;;;;;;;4.63;3.87;;;6.10;90.20;;;5.22;61.27;100547.25;5053727;28;20234;-73
2023/03/17 01:28:13;;;;;;;5.27;3.60;;;6.10;90.10;;;5.23;61.46;100547.13;5053743;28;20193;-73
2023/03/17 01:30:45;;;;;;;4.40;3.70;;;6.10;90.20;;;5.25;61.12;100545.19;5053752;28;20189;-73
2023/03/17 01:33:18;;;;;;;4.37;3.97;;;6.10;90.10;;;5.24;61.15;100548.78;5053648;28;20218;-73
2023/03/17 01:35:50;;;;;;;5.27;3.80;;;6.10;90.10;;;5.21;61.31;100564.97;5053529;28;20226;-73
2023/03/17 01:38:23;;;;;;;5.37;3.60;;;6.10;90.20;;;5.23;61.41;100559.56;5053694;28;20248;-73
2023/03/17 01:40:56;;;;;;;4.23;3.83;;;6.10;90.20;;;5.22;60.93;100563.19;5053623;28;20244;-73
2023/03/17 01:43:30;;;;;;;5.43;3.77;;;6.10;90.10;;;5.21;61.45;100564.97;5053604;28;20194;-73
2023/03/17 01:46:29;;;;;;;4.90;3.80;;;6.10;90.30;;;5.21;60.97;100564.13;5053446;28;20222;-73
2023/03/17 01:49:10;;;;;;;5.40;4.00;;;6.10;90.20;;;5.21;60.96;100556.19;5053510;28;20195;-73
2023/03/17 01:51:47;;;;;;;4.90;4.30;;;6.10;90.10;;;5.21;61.17;100564.13;5053397;28;20213;-73
2023/03/17 01:54:27;;;;;;;5.33;3.83;;;6.10;90.20;;;5.20;61.03;100562.47;5053376;28;20225;-73
2023/03/17 01:57:04;;;;;;;5.37;4.30;;;6.10;90.20;;;5.21;61.34;100554.38;5054696;28;20213;-73
2023/03/17 01:59:44;;;;;;;5.53;4.40;;;6.10;90.30;;;5.21;61.47;100545.56;5060065;28;20186;-73
2023/03/17 02:02:23;;;;;;;5.40;3.83;;;6.10;90.40;;;5.21;61.73;100543.75;5059835;28;20205;-73
2023/03/17 02:04:56;;;;;;;5.00;3.57;;;6.10;90.50;;;5.22;61.73;100534.81;5059904;28;20241;-73
2023/03/17 02:07:28;;;;;;;4.70;4.20;;;6.10;90.50;;;5.22;62.09;100526.03;5059952;28;20194;-73
2023/03/17 02:10:02;;;;;;;5.33;4.10;;;6.10;91.10;;;5.19;62.41;100523.63;5059606;28;20201;-73
2023/03/17 02:12:36;;;;;;;5.57;4.57;;;6.10;90.80;;;5.16;62.19;100524.75;5059852;28;20240;-73
2023/03/17 02:15:10;;;;;;;5.97;4.33;;;6.00;90.90;;;5.14;62.34;100526.66;5059667;28;20245;-73
2023/03/17 02:17:42;;;;;;;4.13;3.73;;;6.00;91.00;;;5.13;62.32;100519.69;5059807;28;20221;-73
2023/03/17 02:21:03;;;;;;;5.33;4.13;;;6.00;91.10;;;5.11;62.17;100513.66;5059597;28;20642;-73
2023/03/17 02:23:37;;;;;;;4.43;3.63;;;6.00;91.00;;;5.11;62.66;100521.63;4978632;28;20201;-73
2023/03/17 02:26:09;;;;;;;5.50;4.30;;;6.00;91.10;;;5.11;61.84;100516.31;5044042;28;20213;-73
2023/03/17 02:28:44;;;;;;;5.67;3.87;;;6.00;90.90;;;5.11;62.49;100500.41;5059804;28;20186;-73
2023/03/17 02:31:16;;;;;;;4.40;3.80;;;6.00;90.90;;;5.15;62.46;100508.94;5059802;28;20194;-73
2023/03/17 02:33:48;;;;;;;4.80;4.07;;;6.00;90.90;;;5.12;62.67;100512.69;5059629;28;20233;-73
2023/03/17 02:36:20;;;;;;;4.23;3.70;;;6.00;91.00;;;5.13;62.30;100514.38;5059716;28;20196;-73
2023/03/17 02:38:54;;;;;;;7.37;4.20;;;6.00;91.00;;;5.11;62.14;100505.69;5059772;28;20273;-73
2023/03/17 02:41:26;;;;;;;5.50;4.40;;;6.00;91.00;;;5.12;62.20;100523.31;5059708;28;20190;-73
2023/03/17 02:43:58;;;;;;;4.70;3.77;;;6.00;91.10;;;5.10;62.64;100530.56;5059334;28;20201;-73
2023/03/17 02:46:30;;;;;;;4.47;4.03;;;6.00;91.10;;;5.09;62.73;100529.72;5059659;28;20195;-73
2023/03/17 02:49:03;;;;;;;4.47;4.03;;;5.90;91.10;;;5.07;62.97;100531.66;5059311;28;20639;-73
2023/03/17 02:51:35;;;;;;;6.20;4.03;;;5.90;91.30;;;5.06;62.84;100545.06;5059612;28;20194;-73
2023/03/17 02:54:09;;;;;;;4.20;3.80;;;5.90;91.30;;;5.02;63.27;100539.19;5059479;28;20230;-73
2023/03/17 02:56:40;;;;;;;5.33;4.40;;;5.90;91.50;;;5.03;62.71;100529.41;5059605;28;20566;-73
2023/03/17 02:59:13;;;;;;;4.40;4.00;;;5.90;91.30;;;5.03;62.98;100526.75;5059562;28;20198;-73
2023/03/17 03:01:47;;;;;;;5.90;3.93;;;5.90;91.40;;;5.01;63.16;100536.66;5059244;28;20649;-73
2023/03/17 03:04:20;;;;;;;4.70;4.10;;;5.90;91.60;;;4.99;63.15;100546.56;5059132;28;20764;-73
2023/03/17 03:06:52;;;;;;;4.40;4.00;;;5.80;91.50;;;4.96;62.90;100537.06;5059486;28;20187;-73
2023/03/17 03:09:26;;;;;;;5.27;4.03;;;5.80;91.60;;;4.94;63.34;100525.72;5056617;28;20182;-73
2023/03/17 03:11:57;;;;;;;4.93;4.20;;;5.80;91.60;;;4.94;63.11;100531.03;5056046;28;20186;-73
2023/03/17 03:14:31;;;;;;;4.97;4.20;;;5.80;91.60;;;4.95;63.12;100526.56;5056148;28;20234;-73
2023/03/17 03:17:03;;;;;;;4.50;4.10;;;5.80;91.60;;;4.96;62.62;100512.34;5055792;28;20222;-73
2023/03/17 03:19:35;;;;;;;5.70;4.23;;;5.80;91.50;;;4.96;63.15;100520.28;5056154;28;20194;-73
2023/03/17 03:22:07;;;;;;;5.33;4.30;;;5.80;91.50;;;4.96;63.29;100507.03;5055801;28;20251;-73
2023/03/17 03:24:40;;;;;;;5.47;4.10;;;5.80;91.60;;;4.97;63.20;100514.84;5055717;28;20576;-73
2023/03/17 03:27:12;;;;;;;4.73;4.17;;;5.80;91.60;;;4.96;63.33;100518.47;5055705;28;20646;-73
2023/03/17 03:29:44;;;;;;;6.23;4.47;;;5.80;91.60;;;4.95;63.67;100522.09;5055645;28;20591;-73
2023/03/17 03:32:15;;;;;;;4.87;4.33;;;5.80;91.60;;;4.95;62.96;100516.78;5055854;28;20248;-73
2023/03/17 03:34:47;;;;;;;5.70;4.50;;;5.80;91.60;;;4.97;62.34;100519.28;5055817;28;20253;-73
2023/03/17 03:37:19;;;;;;;5.90;4.20;;;5.90;91.20;;;4.95;62.74;100511.50;5055835;28;20195;-73
2023/03/17 03:39:53;;;;;;;4.37;3.73;;;5.80;91.30;;;4.97;62.95;100519.28;5055464;28;20639;-73
2023/03/17 03:42:24;;;;;;;6.10;4.73;;;5.80;91.40;;;4.98;62.59;100513.03;5055737;28;20194;-73
2023/03/17 03:44:56;;;;;;;5.23;3.87;;;5.80;91.20;;;4.97;62.94;100506.88;5055634;28;20304;-73
2023/03/17 03:47:28;;;;;;;5.90;4.40;;;5.90;91.30;;;4.97;63.11;100514.00;5055788;28;20186;-73
2023/03/17 03:50:00;;;;;;;4.30;3.90;;;5.80;91.40;;;4.95;62.85;100515.94;5055297;28;20651;-73
2023/03/17 03:52:32;;;;;;;6.00;4.13;;;5.80;91.50;;;4.92;63.31;100516.22;5055132;28;20657;-73
2023/03/17 03:55:07;;;;;;;5.50;4.43;;;5.80;91.60;;;4.91;63.46;100511.88;5055422;28;20230;-73
2023/03/17 03:57:38;;;;;;;4.60;4.10;;;5.80;91.80;;;4.89;63.64;100506.72;5055442;28;20202;-73
2023/03/17 04:00:12;;;;;;;4.10;3.70;;;5.80;91.80;;;4.88;64.12;100501.53;5055379;28;20190;-73
2023/03/17 04:02:45;;;;;;;5.73;4.30;;;5.70;92.00;;;4.85;64.01;100493.81;5055362;28;20198;-73
2023/03/17 04:05:18;;;;;;;6.77;4.90;;;5.70;92.00;;;4.84;63.66;100498.28;5055249;28;20236;-73
2023/03/17 04:07:50;;;;;;;6.47;4.50;;;5.70;92.10;;;4.83;63.84;100490.47;5054904;28;20581;-73
2023/03/17 04:10:24;;;;;;;8.93;5.23;;;5.70;91.90;;;4.84;63.61;100486.81;5055187;28;20187;-73
2023/03/17 04:12:56;;;;;;;6.43;5.13;;;5.70;91.80;;;4.84;63.67;100476.22;5055073;28;20214;-73
2023/03/17 04:15:27;;;;;;;5.03;4.53;;;5.70;91.80;;;4.82;63.41;100470.22;5054834;28;20238;-73
2023/03/17 04:17:59;;;;;;;5.87;4.60;;;5.70;91.90;;;4.81;63.58;100460.56;5055034;28;20194;-73
2023/03/17 04:20:31;;;;;;;5.00;4.33;;;5.70;91.90;;;4.80;63.85;100443.81;5054861;28;20190;-73
2023/03/17 04:23:04;;;;;;;6.13;4.37;;;5.70;91.80;;;4.80;63.37;100446.47;5054974;28;20244;-74
2023/03/17 04:25:37;;;;;;;6.20;4.17;;;5.60;91.70;;;4.77;63.21;100448.53;5054831;28;20295;-73
2023/03/17 04:28:10;;;;;;;4.90;4.37;;;5.70;91.60;;;4.77;63.16;100453.84;5054539;28;20567;-73
2023/03/17 04:30:42;;;;;;;5.97;4.43;;;5.60;91.70;;;4.75;63.82;100443.38;5054787;28;20255;-73
2023/03/17 04:33:14;;;;;;;6.07;4.90;;;5.60;91.80;;;4.74;63.17;100448.81;5055224;28;20218;-73
2023/03/17 04:35:45;;;;;;;5.00;4.07;;;5.60;91.70;;;4.72;62.93;100461.38;5054645;28;20252;-73
2023/03/17 04:38:18;;;;;;;6.60;4.47;;;5.60;91.80;;;4.70;63.17;100455.31;5054654;28;20198;-73
2023/03/17 04:40:51;;;;;;;5.67;4.17;;;5.60;91.80;;;4.71;63.65;100449.06;5054598;28;20209;-73
2023/03/17 04:43:23;;;;;;;5.40;3.73;;;5.60;91.70;;;4.72;63.54;100445.44;5054411;28;20182;-73
2023/03/17 04:45:55;;;;;;;5.37;4.30;;;5.60;91.60;;;4.74;63.52;100438.19;5054137;28;20230;-73
2023/03/17 04:48:27;;;;;;;6.87;4.80;;;5.60;91.70;;;4.68;63.97;100455.47;5054436;28;20190;-73
2023/03/17 04:50:59;;;;;;;5.33;4.60;;;5.60;91.90;;;4.65;64.08;100466.34;5054426;28;20198;-73
2023/03/17 04:53:31;;;;;;;6.37;4.80;;;5.50;92.10;;;4.64;64.18;100459.34;5054250;28;20263;-73
2023/03/17 04:56:04;;;;;;;4.90;4.40;;;5.50;92.10;;;4.63;63.94;100448.84;5054313;28;20229;-73
2023/03/17 04:58:36;;;;;;;5.27;4.53;;;5.50;92.20;;;4.58;64.39;100449.25;5054293;28;20194;-73
2023/03/17 05:01:08;;;;;;;4.77;4.23;;;5.40;92.20;;;4.54;63.93;100453.97;5054241;28;20191;-73
2023/03/17 05:03:40;;;;;;;7.37;5.17;;;5.40;92.30;;;4.54;64.21;100459.28;5054794;28;20276;-73
2023/03/17 05:06:12;;;;;;;5.30;4.13;;;5.40;92.40;;;4.52;64.77;100453.25;5054170;28;20190;-73
2023/03/17 05:08:44;;;;;;;6.87;4.73;;;5.40;92.50;;;4.52;64.67;100463.84;5054107;28;20198;-73
2023/03/17 05:11:19;;;;;;;5.67;4.37;;;5.40;92.90;;;4.47;64.20;100458.13;5054057;28;20194;-73
2023/03/17 05:13:52;;;;;;;7.37;4.57;;;5.40;92.60;;;4.49;64.47;100450.88;5053823;28;20213;-73
2023/03/17 05:16:24;;;;;;;5.67;4.70;;;5.30;92.40;;;4.48;64.60;100441.25;5053608;28;20210;-73
2023/03/17 05:18:56;;;;;;;5.87;4.23;;;5.30;92.40;;;4.49;64.48;100445.56;5053937;28;20190;-73
2023/03/17 05:21:28;;;;;;;5.13;3.90;;;5.40;92.30;;;4.47;64.26;100447.50;5053871;28;20187;-73
2023/03/17 05:24:00;;;;;;;5.70;4.23;;;5.30;92.30;;;4.46;63.99;100448.47;5053717;28;20230;-73
2023/03/17 05:26:33;;;;;;;7.43;4.40;;;5.30;92.30;;;4.46;64.57;100450.28;5053722;28;20198;-73
2023/03/17 05:29:05;;;;;;;7.20;4.67;;;5.30;92.30;;;4.42;64.22;100447.03;5052911;28;20198;-73
2023/03/17 05:31:37;;;;;;;6.43;4.37;;;5.30;92.40;;;4.40;64.42;100449.00;5053074;28;20190;-73
2023/03/17 05:34:09;;;;;;;12.77;4.50;;;5.30;92.50;;;4.41;64.65;100448.03;5053485;28;20233;-73
2023/03/17 05:36:41;;;;;;;5.70;4.60;;;5.30;92.70;;;4.38;65.25;100445.66;5053689;28;20217;-73
2023/03/17 05:39:13;;;;;;;6.13;4.77;;;5.30;92.80;;;4.35;64.73;100445.06;5053651;28;20190;-73
2023/03/17 05:41:46;;;;;;;7.70;4.63;;;5.20;92.90;;;4.31;65.59;100431.22;5053277;28;20661;-73
2023/03/17 05:44:19;;;;;;;7.57;4.73;;;5.20;92.90;;;4.31;65.34;100420.63;5053494;28;20224;-73
2023/03/17 05:46:51;;;;;;;5.93;4.73;;;5.20;92.90;;;4.31;65.05;100422.44;5053515;28;20199;-73
2023/03/17 05:49:23;;;;;;;6.50;4.60;;;5.20;92.90;;;4.31;65.08;100431.22;5053493;28;20198;-73
2023/03/17 05:51:55;;;;;;;7.13;4.23;;;5.20;92.80;;;4.34;64.98;100438.91;5053212;28;20286;-74
2023/03/17 05:54:27;;;;;;;5.40;4.67;;;5.20;92.70;;;4.35;64.62;100439.75;5053003;28;20234;-73
2023/03/17 05:57:00;;;;;;;7.57;4.83;;;5.20;92.70;;;4.37;64.40;100430.69;5053425;28;20186;-73
2023/03/17 05:59:32;;;;;;;7.67;4.47;;;5.30;92.40;;;4.39;64.79;100427.91;5053713;28;20190;-73
2023/03/17 06:02:03;;;;;;;7.07;4.90;;;5.30;92.50;;;4.39;64.76;100428.75;5053115;28;20651;-73
2023/03/17 06:04:35;;;;;;;5.77;4.53;;;5.30;92.50;;;4.36;65.03;100431.66;5053004;28;20767;-73
2023/03/17 06:07:08;;;;;;;6.23;4.53;;;5.30;92.50;;;4.38;64.26;100426.25;5053339;28;20200;-74
2023/03/17 06:09:40;;;;;;;6.40;4.43;;;5.30;92.50;;;4.38;64.45;100419.13;5053345;28;20190;-74
2023/03/17 06:12:14;;;;;;;4.73;4.03;;;5.30;92.60;;;4.40;64.71;100414.53;5053001;28;20190;-74
2023/03/17 06:14:48;;;;;;;6.33;4.77;;;5.30;92.50;;;4.38;64.74;100416.50;5052968;28;20233;-73
2023/03/17 06:17:19;;;;;;;6.43;4.40;;;5.30;92.60;;;4.36;64.70;100423.72;5053014;28;20639;-74
2023/03/17 06:19:51;;;;;;;6.53;4.30;;;5.30;92.60;;;4.36;64.58;100425.50;5053289;28;20195;-74
2023/03/17 06:22:23;;;;;;;6.50;4.23;;;5.30;92.70;;;4.37;64.80;100433.34;5052860;28;20194;-74
2023/03/17 06:24:55;;;;;;;6.60;4.13;;;5.30;92.70;;;4.39;65.21;100438.50;5053029;28;20226;-74
2023/03/17 06:27:29;;;;;;;7.83;5.03;;;5.30;92.70;;;4.38;64.64;100437.69;5053136;28;20190;-74
2023/03/17 06:30:01;;;;;;;7.07;4.70;;;5.30;92.70;;;4.38;65.31;100437.69;5052805;28;20564;-74
2023/03/17 06:32:33;;;;;;;5.70;4.13;;;5.30;92.80;;;4.40;64.85;100434.91;5053102;28;20190;-74
2023/03/17 06:35:06;;;;;;;4.33;3.90;;;5.30;92.70;;;4.40;64.52;100430.44;5052938;28;20226;-74
2023/03/17 06:37:37;;;;;;;5.17;3.83;;;5.30;92.60;;;4.41;65.13;100424.19;5052870;28;20206;-73
2023/03/17 06:40:13;;;;;;;5.47;4.43;;;5.30;92.60;;;4.43;65.21;100424.88;5054565;28;20221;-72
2023/03/17 06:42:47;;;;;;;5.30;4.40;;;5.30;92.70;;;4.46;65.34;100427.25;5053865;28;20194;-72
2023/03/17 06:45:19;;;;;;;4.80;4.30;;;5.40;92.80;;;4.47;64.72;100421.00;5055911;28;20706;-73
2023/03/17 06:47:51;;;;;;;6.53;4.77;;;5.40;92.90;;;4.54;64.87;100419.53;5056923;28;20199;-73
2023/03/17 06:50:23;;;;;;;6.00;4.40;;;5.50;92.90;;;4.58;65.15;100425.41;5056754;28;20213;-74
2023/03/17 06:52:55;;;;;;;6.73;4.47;;;5.50;92.70;;;4.60;65.18;100426.09;5056754;28;20198;-74
2023/03/17 06:55:27;;;;;;;6.53;4.70;;;5.50;92.80;;;4.62;65.33;100439.25;5056237;28;20728;-74
2023/03/17 06:58:01;;;;;;;5.13;4.40;;;5.50;92.90;;;4.65;65.37;100441.63;5056383;28;20588;-74
2023/03/17 07:00:34;;;;;;;5.57;4.50;;;5.60;93.10;;;4.70;65.31;100442.06;5056544;28;20190;-74
2023/03/17 07:03:06;;;;;;;8.30;4.57;;;5.60;93.00;;;4.73;65.95;100441.81;5056245;28;20194;-74
2023/03/17 07:05:38;;;;;;;5.20;4.53;;;5.70;93.50;;;4.77;65.83;100445.88;5056372;28;20226;-72
2023/03/17 07:08:11;;;;;;;7.17;4.43;;;5.70;93.00;;;4.80;65.79;100435.84;5056081;28;20709;-74
2023/03/17 07:10:44;;;;;;;5.10;4.03;;;5.70;93.10;;;4.88;65.48;100433.41;5056030;28;20662;-74
2023/03/17 07:13:18;;;;;;;4.80;4.30;;;5.80;92.90;;;4.99;64.24;100438.63;5056316;28;20198;-74
2023/03/17 07:15:49;;;;;;;5.23;4.07;;;5.90;92.40;;;5.06;64.40;100438.94;5055848;28;20241;-73
2023/03/17 07:18:23;;;;;;;7.10;3.93;;;6.00;92.30;;;5.10;64.09;100435.06;5056182;28;20191;-73
2023/03/17 07:20:58;;;;;;;5.53;4.10;;;6.10;92.20;;;5.20;64.17;100433.28;5056190;28;20206;-74
2023/03/17 07:23:30;;;;;;;5.80;3.90;;;6.20;92.30;;;5.31;64.14;100430.50;5055827;28;20304;-73
2023/03/17 07:26:02;;;;;;;5.53;4.10;;;6.20;92.10;;;5.34;64.18;100427.56;5055977;28;20237;-74
2023/03/17 07:28:36;;;;;;;4.30;3.63;;;6.30;92.10;;;5.37;64.13;100434.47;5055991;28;20197;-73
2023/03/17 07:31:08;;;;;;;4.50;3.87;;;6.30;92.20;;;5.47;63.52;100430.00;5055939;28;20187;-73
2023/03/17 07:33:40;;;;;;;7.20;4.10;;;6.40;91.90;;;5.54;63.74;100424.03;5055654;28;20229;-73
2023/03/17 07:36:12;;;;;;;5.50;4.03;;;6.50;91.80;;;5.56;63.96;100421.22;5055422;28;20210;-74
2023/03/17 07:38:44;;;;;;;5.50;3.87;;;6.50;92.10;;;5.58;64.04;100422.75;5055723;28;20256;-73
2023/03/17 07:41:16;;;;;;;5.83;4.10;;;6.60;91.90;;;5.66;63.89;100426.56;5055587;28;20265;-73
2023/03/17 07:43:49;;;;;;;5.87;3.93;;;6.60;92.10;;;5.66;64.70;100413.28;5055760;28;20209;-73
2023/03/17 07:46:21;;;;;;;6.87;3.70;;;6.60;92.30;;;5.68;64.52;100419.31;5055588;28;20212;-73
2023/03/17 07:48:53;;;;;;;6.40;3.73;;;6.60;92.30;;;5.76;63.76;100417.63;5055452;28;20191;-73
2023/03/17 07:51:26;;;;;;;13.97;4.50;;;6.70;91.90;;;5.87;62.92;100419.34;5055370;28;20226;-74
2023/03/17 07:54:02;;;;;;;5.67;3.73;;;6.80;91.70;;;5.95;63.25;100417.72;5055186;28;20240;-74
2023/03/17 07:56:34;;;;;;;5.47;4.00;;;6.90;91.50;;;6.04;63.38;100416.88;5054319;28;20206;-74
2023/03/17 07:59:09;;;;;;;6.00;4.00;;;7.00;91.50;;;6.20;62.24;100405.66;5055180;28;20209;-74
2023/03/17 08:01:41;;;;;;;4.67;3.53;;;7.20;90.90;;;6.23;63.17;100410.72;5055202;28;20661;-75
2023/03/17 08:04:13;;;;;;;5.17;4.00;;;7.20;91.40;;;6.30;62.99;100406.50;5054962;28;20233;-74
2023/03/17 08:06:46;;;;;;;6.23;3.87;;;7.30;91.40;;;6.39;62.69;100408.31;5054746;28;20693;-75
2023/03/17 08:09:18;;;;;;;5.10;3.70;;;7.40;91.20;;;6.51;60.56;100404.50;5054888;28;20190;-74
2023/03/17 08:11:50;;;;;;;6.00;4.10;;;7.40;90.20;;;6.61;60.87;100402.69;5054466;28;20501;-74
2023/03/17 08:14:23;;;;;;;5.63;3.87;;;7.60;90.00;;;6.76;60.82;100392.44;5054455;28;20705;-74
2023/03/17 08:16:55;;;;;;;4.73;3.80;;;7.70;89.60;;;6.85;60.15;100390.75;5054251;28;20229;-76
2023/03/17 08:19:27;;;;;;;3.93;3.30;;;7.80;88.80;;;6.90;60.05;100399.09;5054799;28;20651;-75
2023/03/17 08:22:00;;;;;;;5.90;3.47;;;7.80;88.60;;;6.96;59.70;100399.38;5054388;28;20661;-75
2023/03/17 08:24:31;;;;;;;5.27;3.20;;;7.90;88.20;;;7.07;59.83;100390.38;5054523;28;20238;-74
2023/03/17 08:27:03;;;;;;;5.83;3.67;;;8.00;88.30;;;7.13;59.11;100389.78;5054744;28;20213;-75
2023/03/17 08:29:38;;;;;;;4.97;3.30;;;8.10;87.50;;;7.25;58.78;100399.25;5054567;28;20194;-74
2023/03/17 08:32:12;;;;;;;4.23;3.37;;;8.20;87.10;;;7.39;57.97;100412.09;5054160;28;20197;-74
2023/03/17 08:34:45;;;;;;;3.47;3.00;;;8.30;86.80;;;7.43;59.10;100405.47;5054476;28;20240;-74
2023/03/17 08:37:17;;;;;;;3.97;2.90;;;8.40;87.80;;;7.44;58.55;100393.81;5054385;28;20187;-74
2023/03/17 08:39:48;;;;;;;5.10;3.40;;;8.40;86.00;;;7.55;58.58;100404.28;5054331;28;20190;-74
2023/03/17 08:42:21;;;;;;;3.77;2.77;;;8.50;86.70;;;7.63;57.67;100404.38;5054050;28;20225;-75
2023/03/17 08:44:54;;;;;;;3.93;2.77;;;8.50;85.80;;;7.81;57.19;100395.56;5054768;28;20226;-75
2023/03/17 08:47:27;;;;;;;6.07;2.97;;;8.70;84.10;;;7.89;56.89;100398.31;5054407;28;20194;-74
2023/03/17 08:49:59;;;;;;;4.10;2.77;;;8.80;83.30;;;7.98;55.89;100392.91;5054852;28;20187;-74
2023/03/17 08:52:31;;;;;;;4.33;2.90;;;8.80;82.20;;;8.14;55.84;100393.06;5054264;28;20608;-75
2023/03/17 08:55:03;;;;;;;6.10;3.10;;;9.00;82.30;;;8.29;54.69;100401.38;5053865;28;20230;-74
2023/03/17 08:57:35;;;;;;;3.80;2.80;;;9.20;80.80;;;8.31;55.25;100399.41;5054195;28;20194;-74
2023/03/17 09:00:11;;;;;;;3.67;3.10;;;9.20;81.10;;;8.38;54.67;100402.28;5053577;28;20194;-74
2023/03/17 09:02:44;;;;;;;5.20;2.90;;;9.20;80.40;;;8.68;53.34;100395.69;5054029;28;20205;-75
2023/03/17 09:05:18;;;;;;;4.10;2.77;;;9.40;78.80;;;8.60;54.58;100399.97;5053976;28;20284;-74
2023/03/17 09:07:51;;;;;;;4.53;2.67;;;9.50;79.30;;;8.56;55.45;100395.91;5053108;28;20190;-75
2023/03/17 09:10:24;;;;;;;7.50;2.73;;;9.40;81.20;;;8.77;54.76;100397.44;5053857;28;20198;-76
2023/03/17 09:13:01;;;;;;;5.67;2.80;;;9.60;80.50;;;8.76;56.28;100395.75;5053645;28;20249;-72
2023/03/17 09:15:36;;;;;;;4.30;2.90;;;9.70;81.30;;;8.84;54.52;100390.44;5053329;28;20241;-71
2023/03/17 09:18:10;;;;;;;3.43;2.90;;;9.70;79.80;;;8.90;54.00;100380.00;5053527;28;20219;-71
2023/03/17 09:20:42;;;;;;;3.60;2.90;;;9.80;79.00;;;8.97;54.23;100375.66;5053457;28;20190;-72
2023/03/17 09:23:14;;;;;;;3.63;2.47;;;9.80;79.30;;;9.04;54.39;100373.22;5053790;28;20248;-73
2023/03/17 09:25:49;;;;;;;6.57;4.40;;;9.90;79.00;;;9.15;54.09;100373.75;5054350;28;20230;-72
2023/03/17 09:28:22;;;;;;;5.50;2.73;;;10.00;78.10;;;9.25;52.66;100378.97;5053358;28;20558;-72
2023/03/17 09:31:00;;;;;;;3.37;3.07;;;10.10;76.90;;;9.29;54.35;100374.97;5053868;28;20191;-73
2023/03/17 09:33:32;;;;;;;3.13;2.47;;;10.20;78.80;;;9.40;53.97;100372.03;5053700;28;20190;-73
2023/03/17 09:36:04;;;;;;;4.70;4.10;;;10.20;78.20;;;9.54;52.87;100366.06;5053463;28;20238;-72
2023/03/17 09:38:36;;;;;;;6.07;3.43;;;10.40;76.60;;;9.64;51.64;100372.09;5053256;28;20548;-73
2023/03/17 09:41:30;;;;;;;5.33;3.67;;;10.50;74.30;;;9.69;51.84;100367.09;5053182;28;20209;-73
2023/03/17 09:44:18;;;;;;;7.00;4.40;;;10.50;73.80;;;9.79;51.20;100366.97;5053449;28;20234;-72
2023/03/17 09:46:59;;;;;;;4.30;2.60;;;10.60;74.00;;;9.85;51.08;100358.28;5053361;28;20194;-74
2023/03/17 09:49:43;;;;;;;4.83;2.87;;;10.70;72.90;;;10.11;48.55;100366.16;5053284;28;20190;-75
2023/03/17 09:52:26;;;;;;;4.37;2.87;;;10.90;70.60;;;10.10;50.20;100359.16;5053848;28;20206;-74
2023/03/17 09:55:02;;;;;;;2.80;2.10;;;11.00;71.00;;;10.22;49.23;100360.50;5053740;28;20230;-73
2023/03/17 09:57:39;;;;;;;3.70;2.50;;;11.00;70.00;;;10.24;51.13;100358.50;5053683;28;20225;-73
2023/03/17 10:00:25;;;;;;;2.93;2.40;;;11.10;72.20;;;10.43;50.44;100360.84;5053321;28;20281;-73
2023/03/17 10:03:00;;;;;;;4.33;2.67;;;11.30;70.40;;;10.43;49.53;100371.56;5053271;28;20247;-73
2023/03/17 10:05:34;;;;;;;4.40;2.50;;;11.30;70.60;;;10.44;50.90;100369.72;5053276;28;20221;-73
2023/03/17 10:08:17;;;;;;;6.00;2.50;;;11.30;72.30;;;10.44;50.83;100372.38;5053254;28;20281;-73
2023/03/17 10:11:08;;;;;;;2.70;2.50;;;11.20;72.40;;;10.45;51.12;100379.38;5053280;28;20190;-74
2023/03/17 10:13:53;;;;;;;4.00;2.70;;;11.30;72.50;;;10.56;49.42;100376.38;5052298;28;20186;-71
2023/03/17 10:16:38;;;;;;;5.03;2.80;;;11.40;69.60;;;10.58;51.09;100377.88;5052049;28;20230;-72
2023/03/17 10:19:27;;;;;;;12.73;7.57;;;11.40;71.40;;;10.63;50.03;100372.88;5055484;28;20190;-73
2023/03/17 10:22:05;;;;;;;9.70;5.70;;;11.50;71.00;;;10.87;49.33;100368.47;5056844;28;20186;-72
2023/03/17 10:24:46;;;;;;;9.43;6.77;;;11.70;68.90;;;10.90;49.80;100366.28;5057060;28;20236;-73
2023/03/17 10:27:20;;;;;;;5.30;3.43;;;11.70;69.60;;;10.94;49.72;100370.28;5057740;28;20186;-73
2023/03/17 10:29:52;;;;;;;5.20;3.50;;;11.80;69.30;;;10.96;49.70;100372.81;5056299;28;20574;-72
2023/03/17 10:32:26;;;;;;;3.93;3.20;;;11.80;70.10;;;11.08;48.90;100372.25;5056847;28;20737;-72
2023/03/17 10:35:00;;;;;;;4.23;3.27;;;11.90;67.80;;;11.12;49.55;100373.59;5057172;28;20230;-74
2023/03/17 10:37:35;;;;;;;3.97;2.87;;;11.90;69.50;;;11.28;49.29;100364.66;5057220;28;20214;-73
2023/03/17 10:40:21;;;;;;;3.77;2.90;;;12.10;68.50;;;11.36;49.02;100369.13;5056574;28;20189;-61
2023/03/17 10:42:55;;;;;;;3.00;2.50;;;12.20;69.10;;;11.49;47.15;100372.94;5056269;28;20194;-76
2023/03/17 10:45:32;;;;;;;3.83;2.40;;;12.30;66.20;;;11.64;46.66;100363.13;5057389;28;20221;-76
2023/03/17 10:48:08;;;;;;;7.13;5.00;;;12.40;64.30;;;11.64;47.28;100362.31;5056832;28;20194;-64
2023/03/17 10:50:41;;;;;;;4.23;2.63;;;12.40;66.20;;;11.69;48.57;100365.28;5056366;28;20642;-68
2023/03/17 10:53:26;;;;;;;5.70;3.83;;;12.50;67.20;;;11.81;48.49;100357.72;5056321;28;20195;-68